Primrose, Nebraska
Current Conditions -  °F | °C
As of 1:35 PM on Tuesday 21 Oct 2014 (Local Time) from KBVN Reporting Station
Clear Clear  
Wind Chill: 74°   Ceiling: Unl
Heat Index: 74°   Visibility: 10mi
Dew Point: 42°   Wind: 12mph
Humidity: 31%   Direction: 180°S
Pressure: 30.03"   Gusts: 20mph
Location:  41.62°N, 98.24°W
Report Text: KBVN 211835Z AUTO 18010G17KT 10SM CLR 23/05 A3003 RMK AO2 T02330054
Loading
Personal Weather Stations






























Interactive Weather Map New forecast layout! Learn more

10-Day Weather Forecast

Advertisements
Track Severe Weather on mobile